Terminal Aerodrome Forecast
Issued by NWS

Home | Current Version | Previous Version | Text Only | Print | Product List | Glossary On
Versions: 1 2 3 4 5 6 7 8 9 10 11 12 13 14 15 16 17 18 19 20 21 22 23 24 25 26 27 28 29
000
FTUS42 KCAE 261100 RRA
TAFOGB
TAF
KOGB 261142Z 2612/2712 34010G20KT 4SM RA BR BKN010 OVC040
     FM261400 33012G20KT 5SM -RA BR OVC025
     FM261600 31012G20KT P6SM OVC040
     FM262300 29005KT P6SM SCT060 SCT250
     FM270700 24006KT P6SM SKC=

USA.gov is the U.S. government's official web portal to all federal, state and local government web resources and services.